Nearby METAR Reports

METAR is the scheduled surface weather observation taken hourly at civil and military airport locations.

METAR is an acronym from the French language and roughly translates as Aviation Routine Weather Report.

 

EGPL - Benbecula Island, United Kingdom
Distance from station: WNW 41mi, 66km
Updated: 14/12/2017 12:20
NOT Current
Nearby showers, Partly cloudy
Nearby showers, Partly cloudy
 Wind from NW
Wind: NW 9 mph , 15 km/h
Temperature: 5°C
Wind Chill: 2°C
Dew Point: 4°C
Humidity: 93%
Barometer: 980 hPa
Summary: Nearby Showers
Clouds: Partly cloudy
Visibility: 6 miles , 10 km
Cloud details: Few Clouds 152 m
Partly cloudy 549 m
2017/12/14 12:20 EGPL 141220Z 32008KT 9999 VCSH FEW005CB SCT018 05/04 Q0980
EGPU - Tiree Island, United Kingdom
Distance from station: SSW 56mi, 90km
Updated: 15/12/2017 05:50
Few Clouds
Few Clouds
 Wind from N
Wind: N 29 mph , 46 km/h
Temperature: 6°C
Wind Chill: 1°C
Dew Point: 2°C
Humidity: 76%
Barometer: 1003 hPa
Clouds: Few Clouds
Visibility: 6 miles , 10 km
Cloud details: Few Clouds 975 m
2017/12/15 05:50 EGPU 150550Z AUTO 36025KT 330V030 9999 FEW032/// 06/02 Q1003
 
EGEO - Oban Airport, United Kingdom
Distance from station: SE 65mi, 105km
Updated: 14/12/2017 15:50
NOT Current
Nearby showers, Overcast
Nearby showers, Overcast
 Wind from varies
Wind: varies 5 mph , 7 km/h
Temperature: 3°C
Wind Chill: 1°C
Dew Point: 2°C
Humidity: 93%
Barometer: 981 hPa
Summary: Nearby Showers
Clouds: Overcast
Visibility: 5 miles , 8 km
Cloud details: Few Clouds 305 m
Mostly cloudy 396 m
Overcast 701 m
2017/12/14 15:50 EGEO 141550Z VRB04KT 8000 VCSH FEW010 BKN013 OVC023 03/02 Q0981
EGPO - Stornoway, United Kingdom
Distance from station: 0 66mi, 106km
Updated: 15/12/2017 06:20
Nearby showers, Few clouds
Nearby showers, Few clouds
 Wind from N
Wind: N 13 mph , 20 km/h
Temperature: 4°C
Wind Chill: -1°C
Dew Point: 2°C
Humidity: 87%
Barometer: 1004 hPa
Summary: Nearby Showers
Clouds: Few Clouds
Visibility: 6 miles , 10 km
Cloud details: Few Clouds 488 m
Few Clouds 732 m
2017/12/15 06:20 EGPO 150620Z 35011KT 9999 VCSH FEW016 FEW024CB 04/02 Q1004 RESHGS
 
EGPE - Inverness/Dalcro, United Kingdom
Distance from station: ENE 88mi, 141km
Updated: 15/12/2017 06:20
Few Clouds
Few Clouds
 Wind from N
Wind: N 10 mph , 17 km/h
Temperature: 3°C
Wind Chill: -1°C
Dew Point: 1°C
Humidity: 87%
Barometer: 1002 hPa
Clouds: Few Clouds
Visibility: 6 miles , 10 km
Cloud details: Few Clouds 762 m
2017/12/15 06:20 EGPE 150620Z 36009KT 9999 FEW025 03/01 Q1002
EGQA - Tain Range (saws, United Kingdom
Distance from station: ENE 97mi, 156km
Updated: 14/12/2017 13:50
NOT Current
Rain showers, Mostly cloudy
Rain showers, Mostly cloudy
 Wind from SW
Wind: SW 15 mph , 24 km/h
Summary: Rain Showers
Clouds: Mostly cloudy
Visibility: 6 miles , 10 km
Cloud details: Few Clouds 366 m
Partly cloudy 762 m
Mostly cloudy 1067 m
2017/12/14 13:50 EGQA 141350Z 22013KT 9999 SHRA FEW012 SCT025 BKN035 02/// Q0978 BLU
 
EGQK - Kinloss Raf, United Kingdom
Distance from station: ENE 107mi, 171km
Updated: 15/12/2017 05:50
Mostly cloudy
Mostly cloudy
 Wind from N
Wind: N 21 mph , 33 km/h
Temperature: 6°C
Wind Chill: 1°C
Dew Point: 2°C
Humidity: 76%
Barometer: 1000 hPa
Clouds: Mostly cloudy
Visibility: 6 miles , 10 km
Cloud details: Mostly cloudy 1829 m
Mostly cloudy 3962 m
2017/12/15 05:50 EGQK 150550Z AUTO 36018KT 9999 BKN060/// BKN130/// 06/02 Q1000
EGPI - Islay/Port Ellen, United Kingdom
Distance from station: S 110mi, 177km
Updated: 15/12/2017 05:50
Clear
Clear
 Wind from N
Wind: N 20 mph , 31 km/h
Temperature: 6°C
Wind Chill: 1°C
Dew Point: 3°C
Humidity: 81%
Barometer: 1001 hPa
Clouds: Clear
Visibility: 6 miles , 10 km
2017/12/15 05:50 EGPI 150550Z AUTO 35017KT 330V030 9999 NCD 06/03 Q1001
 
EGQS - Lossiemouth Raf, United Kingdom
Distance from station: ENE 117mi, 188km
Updated: 15/12/2017 05:50
Clear
Clear
 Wind from N
Wind: N 26 mph , 43 km/h
Temperature: 6°C
Wind Chill: 1°C
Dew Point: 1°C
Humidity: 71%
Barometer: 999 hPa
Summary: Clear
Visibility: greater than 7 miles , 10 km
2017/12/15 05:50 EGQS 150550Z 36023KT CAVOK 06/01 Q0999 BLU
EGPF - Glasgow Airport, United Kingdom
Distance from station: SE 121mi, 195km
Updated: 15/12/2017 06:20
Clear
Clear
 Wind from NNW
Wind: NNW 8 mph , 13 km/h
Temperature: 5°C
Wind Chill: 2°C
Dew Point: 1°C
Humidity: 76%
Barometer: 999 hPa
Clouds: Clear
Visibility: 6 miles , 10 km
2017/12/15 06:20 EGPF 150620Z AUTO 33007KT 260V020 9999 NCD 05/01 Q0999
 
EGEC - Campbeltown, United Kingdom
Distance from station: SSE 129mi, 207km
Updated: 14/12/2017 16:50
NOT Current
Few Clouds
Few Clouds
 Wind from NW
Wind: NW 21 mph , 33 km/h
Temperature: 7°C
Wind Chill: 3°C
Dew Point: 4°C
Humidity: 81%
Barometer: 983 hPa
Clouds: Few Clouds
Visibility: 6 miles , 10 km
Cloud details: Few Clouds 640 m
2017/12/14 16:50 EGEC 141650Z 31018KT 9999 FEW021 07/04 Q0983
EGPN - Dundee/Riverside, United Kingdom
Distance from station: ESE 137mi, 221km
Updated: 15/12/2017 06:20
Nearby showers, Partly cloudy
Nearby showers, Partly cloudy
 Wind from NNE
Wind: NNE 9 mph , 15 km/h
Temperature: 5°C
Wind Chill: 2°C
Dew Point: 2°C
Humidity: 81%
Barometer: 997 hPa
Summary: Nearby Showers
Clouds: Partly cloudy
Visibility: 6 miles , 10 km
Cloud details: Partly cloudy 975 m
2017/12/15 06:20 EGPN 150620Z 03008KT 350V060 9999 VCSH SCT032 05/02 Q0997
 
EGPK - Prestwick(Civ/Na, United Kingdom
Distance from station: SSE 139mi, 224km
Updated: 15/12/2017 06:20
Few Clouds
Few Clouds
 Wind from calm
Wind: Calm
Temperature: 2°C
Dew Point: 0°C
Humidity: 87%
Barometer: 999 hPa
Clouds: Few Clouds
Visibility: 6 miles , 10 km
Cloud details: Few Clouds 853 m
2017/12/15 06:20 EGPK 150620Z 00000KT 9999 FEW028 02/M00 Q0999
EGQL - Leuchars Raf, United Kingdom
Distance from station: ESE 145mi, 233km
Updated: 15/12/2017 05:50
Partly cloudy
Partly cloudy
 Wind from N
Wind: N 12 mph , 19 km/h
Temperature: 4°C
Wind Chill: 0°C
Dew Point: 2°C
Humidity: 87%
Barometer: 996 hPa
Clouds: Partly cloudy
Visibility: 6 miles , 10 km
Cloud details: Partly cloudy 975 m
Partly cloudy 1524 m
2017/12/15 05:50 EGQL 150550Z 36010KT 9999 SCT032 SCT050 04/02 Q0996 BLACKBLU
 
EGPH - Edinburgh Airpor, United Kingdom
Distance from station: SE 145mi, 234km
Updated: 15/12/2017 06:20
Overcast
Overcast
 Wind from NW
Wind: NW 7 mph , 11 km/h
Temperature: 4°C
Wind Chill: 1°C
Dew Point: 2°C
Humidity: 87%
Clouds: Overcast
Visibility: 6 miles , 10 km
Cloud details: Mostly cloudy 884 m
Overcast 1189 m
2017/12/15 06:20 EGPH 150620Z 32006KT 280V350 9999 BKN029 OVC039 04/02
EGPC - Wick, United Kingdom
Distance from station: NE 146mi, 234km
Updated: 15/12/2017 06:20
Few Clouds
Few Clouds
 Wind from N
Wind: N 14 mph , 22 km/h
Temperature: 4°C
Wind Chill: -1°C
Dew Point: 2°C
Humidity: 87%
Barometer: 1000 hPa
Clouds: Few Clouds
Visibility: 6 miles , 10 km
Cloud details: Few Clouds 610 m
2017/12/15 06:20 EGPC 150620Z 36012KT 9999 FEW020 04/02 Q1000

-

free counters
QR Code Twitter Scottish Weather Network UK Weather Network
Argyll House B & B

Argyll House B & B is situated in North West Skye and is the perfect base to see all that the Isle of Skye has to offer.
Bookings been taken for 2018.